Nvo.santanina — EA2910 — position and weather

sailwx.info

Track history (hours):
 
Tides and Currents Weather Stations Pressure Air Temp Water Temp Dewpoint Dewpoint Depression Visibility Wind Speed Wind Dir Waves Ship Positions

Nvo.santanina

Last reported at 2017-Nov-03 05:51 UTC. Time now 2017-Nov-23 03:51 UTC.
Position N 43°33' W 005°42'.
Warning: this ship's position is 19 days out of date.

Length 26 m.

Type: Fishing. MMSI: 224137770.

Date/timePositionNaut miles runAvg speedWind from/ knotsBaromVisibWave heightAir tempDewpointWater temp
2017-Nov-03 05:51N 43°33' W 005°42'3 8.0
2017-Nov-03 05:30N 43°35' W 005°38'3 1.2
2017-Nov-03 03:22N 43°36' W 005°35'0 0.1
2017-Nov-03 02:55N 43°36' W 005°35'0 0.2
2017-Nov-03 02:25N 43°36' W 005°35'0 0.3
2017-Nov-03 01:56N 43°36' W 005°35'0 0.1
2017-Nov-03 00:56N 43°36' W 005°35'5 0.3
2017-Nov-02 07:52N 43°33' W 005°42'3 0.9
2017-Nov-02 04:42N 43°36' W 005°40'2 9.0
2017-Nov-02 04:30N 43°35' W 005°38'  
2017-Oct-30 05:57N 43°33' W 005°42'0 0.6
2017-Oct-30 05:30N 43°33' W 005°41'5 1.7
2017-Oct-30 02:44N 43°38' W 005°44'2 6.0
2017-Oct-30 02:25N 43°38' W 005°42'5 9.2
2017-Oct-30 01:50N 43°37' W 005°35'0 0.2
2017-Oct-30 01:16N 43°37' W 005°35'0 1.3
2017-Oct-30 01:00N 43°36' W 005°34'  
2017-Oct-27 05:42N 43°33' W 005°42'2 8.2
2017-Oct-27 05:30N 43°34' W 005°40'5 2.8
2017-Oct-27 03:46N 43°37' W 005°35'6 0.3
2017-Oct-26 04:55N 43°33' W 005°42'5 8.0
2017-Oct-26 04:19N 43°35' W 005°35'0 0.6
2017-Oct-26 04:00N 43°35' W 005°35'0 0.1
2017-Oct-26 02:17N 43°35' W 005°35'0 0.9
2017-Oct-26 01:59N 43°35' W 005°36'0 0.1
2017-Oct-26 01:30N 43°35' W 005°36'0 0.1
2017-Oct-25 18:24N 43°35' W 005°35'1 1.7
2017-Oct-25 18:00N 43°35' W 005°36'4 0.3
2017-Oct-25 04:35N 43°33' W 005°42'0 4.5
2017-Oct-25 04:29N 43°34' W 005°41'4 0.4
2017-Oct-24 18:16N 43°35' W 005°36'0 0.2
2017-Oct-24 17:47N 43°35' W 005°36'  
Track history (hours):
 
Tides and Currents Weather Stations Pressure Air Temp Water Temp Dewpoint Dewpoint Depression Visibility Wind Speed Wind Dir Waves Ship Positions

Nvo.santanina

Last reported at 2017-Nov-03 05:51 UTC. Time now 2017-Nov-23 03:51 UTC.
Position N 43°33' W 005°42'.
Warning: this ship's position is 19 days out of date.

Length 26 m.

Type: Fishing. MMSI: 224137770.

Date/timePositionNaut miles runAvg speedWind from/ knotsBaromVisibWave heightAir tempDewpointWater temp
2017-Nov-03 05:51N 43°33' W 005°42'3 8.0
2017-Nov-03 05:30N 43°35' W 005°38'3 1.2
2017-Nov-03 03:22N 43°36' W 005°35'0 0.1
2017-Nov-03 02:55N 43°36' W 005°35'0 0.2
2017-Nov-03 02:25N 43°36' W 005°35'0 0.3
2017-Nov-03 01:56N 43°36' W 005°35'0 0.1
2017-Nov-03 00:56N 43°36' W 005°35'5 0.3
2017-Nov-02 07:52N 43°33' W 005°42'3 0.9
2017-Nov-02 04:42N 43°36' W 005°40'2 9.0
2017-Nov-02 04:30N 43°35' W 005°38'  
2017-Oct-30 05:57N 43°33' W 005°42'0 0.6
2017-Oct-30 05:30N 43°33' W 005°41'5 1.7
2017-Oct-30 02:44N 43°38' W 005°44'2 6.0
2017-Oct-30 02:25N 43°38' W 005°42'5 9.2
2017-Oct-30 01:50N 43°37' W 005°35'0 0.2
2017-Oct-30 01:16N 43°37' W 005°35'0 1.3
2017-Oct-30 01:00N 43°36' W 005°34'  
2017-Oct-27 05:42N 43°33' W 005°42'2 8.2
2017-Oct-27 05:30N 43°34' W 005°40'5 2.8
2017-Oct-27 03:46N 43°37' W 005°35'6 0.3
2017-Oct-26 04:55N 43°33' W 005°42'5 8.0
2017-Oct-26 04:19N 43°35' W 005°35'0 0.6
2017-Oct-26 04:00N 43°35' W 005°35'0 0.1
2017-Oct-26 02:17N 43°35' W 005°35'0 0.9
2017-Oct-26 01:59N 43°35' W 005°36'0 0.1
2017-Oct-26 01:30N 43°35' W 005°36'0 0.1
2017-Oct-25 18:24N 43°35' W 005°35'1 1.7
2017-Oct-25 18:00N 43°35' W 005°36'4 0.3
2017-Oct-25 04:35N 43°33' W 005°42'0 4.5
2017-Oct-25 04:29N 43°34' W 005°41'4 0.4
2017-Oct-24 18:16N 43°35' W 005°36'0 0.2
2017-Oct-24 17:47N 43°35' W 005°36'  

Dump ship's entire track history